Time;durP1;ratioP1;P1;durP2;ratioP2;P2;SDS_P1;SDS_P2;PMS_P1;PMS_P2;Temp;Humidity;BMP_temperature;BMP_pressure;BME280_temperature;BME280_humidity;BME280_pressure;Samples;Min_cycle;Max_cycle;Signal;HPM_P1;HPM_P2
2022/03/04 00:00:25;;;;;;;7.38;6.35;;;0.80;90.90;;;;;;5035249;28;20540;-70
2022/03/04 00:02:52;;;;;;;4.97;4.38;;;0.80;90.90;;;;;;5053065;28;20255;-70
2022/03/04 00:05:18;;;;;;;10.48;3.83;;;0.80;90.90;;;;;;5052561;28;20213;-69
2022/03/04 00:07:43;;;;;;;7.30;5.93;;;0.80;90.80;;;;;;5052929;28;20168;-71
2022/03/04 00:10:09;;;;;;;6.33;4.63;;;0.90;90.80;;;;;;5035135;28;20400;-69
2022/03/04 00:12:35;;;;;;;6.23;5.60;;;0.90;90.70;;;;;;5053113;28;20223;-68
2022/03/04 00:15:00;;;;;;;5.73;5.33;;;0.90;90.60;;;;;;5052839;28;20193;-70
2022/03/04 00:17:26;;;;;;;5.87;4.37;;;0.90;90.50;;;;;;5035150;28;20674;-69
2022/03/04 00:19:52;;;;;;;3.57;3.27;;;1.00;90.40;;;;;;5052937;28;20511;-69
2022/03/04 00:22:17;;;;;;;5.63;4.50;;;1.00;90.20;;;;;;5034766;28;20208;-71
2022/03/04 00:24:44;;;;;;;8.17;5.97;;;1.00;90.10;;;;;;5052594;28;20323;-70
2022/03/04 00:27:10;;;;;;;7.25;4.18;;;1.00;90.00;;;;;;5035188;28;20581;-70
2022/03/04 00:29:35;;;;;;;6.93;6.03;;;0.90;90.00;;;;;;5053263;28;20211;-69
2022/03/04 00:32:01;;;;;;;15.00;6.40;;;0.90;90.30;;;;;;5053176;28;20177;-69
2022/03/04 00:34:27;;;;;;;4.90;3.70;;;0.80;90.50;;;;;;5052368;28;20568;-69
2022/03/04 00:36:53;;;;;;;8.17;4.83;;;0.70;90.60;;;;;;5053071;28;20420;-70
2022/03/04 00:39:18;;;;;;;5.30;4.90;;;0.70;90.80;;;;;;5052949;28;20189;-71
2022/03/04 00:41:44;;;;;;;11.10;4.30;;;0.70;91.00;;;;;;5052634;28;20228;-69
2022/03/04 00:44:10;;;;;;;7.47;5.63;;;0.60;91.20;;;;;;5052396;28;20205;-68
2022/03/04 00:46:36;;;;;;;4.75;4.07;;;0.60;91.20;;;;;;5056249;28;20197;-68
2022/03/04 00:49:04;;;;;;;3.27;2.97;;;0.60;91.50;;;;;;5058289;28;20170;-70
2022/03/04 00:51:29;;;;;;;5.55;4.28;;;0.50;91.60;;;;;;5057461;28;20470;-71
2022/03/04 00:53:55;;;;;;;7.70;4.47;;;0.50;91.70;;;;;;5057741;28;20170;-69
2022/03/04 00:56:21;;;;;;;3.65;3.30;;;0.40;92.00;;;;;;5057566;28;20179;-68
2022/03/04 00:58:47;;;;;;;12.23;4.67;;;0.40;92.10;;;;;;5058266;28;20192;-70
2022/03/04 01:01:12;;;;;;;7.13;4.70;;;0.40;92.10;;;;;;5058392;28;20501;-70
2022/03/04 01:03:39;;;;;;;8.40;5.53;;;0.30;92.20;;;;;;5058170;28;21024;-70
2022/03/04 01:06:06;;;;;;;5.93;5.03;;;0.30;92.40;;;;;;5056946;28;20240;-68
2022/03/04 01:08:32;;;;;;;5.55;5.05;;;0.30;92.60;;;;;;5056133;28;20162;-68
2022/03/04 01:10:58;;;;;;;6.93;4.72;;;0.20;92.70;;;;;;5056166;28;20577;-69
2022/03/04 01:13:24;;;;;;;8.40;4.90;;;0.20;93.00;;;;;;5056136;28;20248;-68
2022/03/04 01:15:50;;;;;;;7.45;5.78;;;0.20;93.60;;;;;;5056540;28;20260;-72
2022/03/04 01:18:16;;;;;;;7.60;6.20;;;0.20;93.80;;;;;;5056823;28;20183;-68
2022/03/04 01:20:42;;;;;;;5.53;4.22;;;0.10;93.80;;;;;;5055863;28;20180;-69
2022/03/04 01:23:09;;;;;;;5.03;4.55;;;0.10;94.20;;;;;;5038500;28;20173;-70
2022/03/04 01:25:35;;;;;;;11.25;5.90;;;0.10;94.30;;;;;;5055901;28;20225;-69
2022/03/04 01:28:01;;;;;;;4.20;3.40;;;0.10;94.40;;;;;;5056118;28;20204;-71
2022/03/04 01:30:26;;;;;;;3.10;2.90;;;0.10;94.50;;;;;;5056078;28;20405;-70
2022/03/04 01:32:52;;;;;;;8.90;4.73;;;0.10;94.80;;;;;;5055442;28;20411;-68
2022/03/04 01:35:18;;;;;;;4.53;4.23;;;0.00;94.70;;;;;;5055402;28;20189;-69
2022/03/04 01:37:44;;;;;;;5.30;4.80;;;0.00;95.20;;;;;;5037574;28;20523;-69
2022/03/04 01:40:11;;;;;;;8.90;5.35;;;0.00;95.30;;;;;;5037678;28;20404;-69
2022/03/04 01:42:38;;;;;;;6.03;3.85;;;0.00;94.90;;;;;;5055442;28;20208;-70
2022/03/04 01:45:06;;;;;;;5.13;3.97;;;-0.10;95.10;;;;;;5037022;28;20199;-71
2022/03/04 01:47:33;;;;;;;6.55;4.57;;;-0.10;95.10;;;;;;5055115;28;20658;-68
2022/03/04 01:49:59;;;;;;;6.60;4.68;;;-0.10;95.50;;;;;;5055150;28;20253;-69
2022/03/04 01:52:25;;;;;;;6.97;5.63;;;-0.10;95.50;;;;;;5037375;28;20588;-70
2022/03/04 01:54:51;;;;;;;3.70;3.47;;;-0.20;95.70;;;;;;5054755;28;20428;-69
2022/03/04 01:57:16;;;;;;;4.93;3.43;;;-0.10;95.90;;;;;;5054365;28;20667;-70
2022/03/04 01:59:42;;;;;;;7.03;5.50;;;-0.20;96.20;;;;;;5054919;28;20178;-69
2022/03/04 02:02:10;;;;;;;8.03;4.80;;;-0.20;96.80;;;;;;5054774;28;20259;-69
2022/03/04 02:04:36;;;;;;;5.72;5.20;;;-0.10;96.40;;;;;;5054412;28;20330;-68
2022/03/04 02:07:02;;;;;;;6.70;3.90;;;-0.10;96.40;;;;;;5054827;28;20245;-67
2022/03/04 02:09:28;;;;;;;12.90;4.30;;;-0.10;96.30;;;;;;5054687;28;20193;-69
2022/03/04 02:11:53;;;;;;;21.07;4.80;;;-0.20;96.30;;;;;;5054810;28;20412;-69
2022/03/04 02:14:19;;;;;;;5.83;4.03;;;-0.20;96.10;;;;;;5036410;28;20197;-67
2022/03/04 02:16:53;;;;;;;9.40;5.50;;;-0.20;95.90;;;;;;5054562;28;20173;-68
2022/03/04 02:19:20;;;;;;;6.05;3.97;;;-0.30;96.00;;;;;;5054533;28;20207;-68
2022/03/04 02:21:54;;;;;;;3.88;3.45;;;-0.30;96.40;;;;;;5054466;28;20193;-69
2022/03/04 02:24:24;;;;;;;4.65;4.22;;;-0.30;96.60;;;;;;5054124;28;20182;-68
2022/03/04 02:26:52;;;;;;;5.32;4.55;;;-0.30;96.80;;;;;;5036631;28;20176;-69
2022/03/04 02:29:18;;;;;;;3.38;3.22;;;-0.30;96.80;;;;;;5036493;28;20162;-69
2022/03/04 02:31:44;;;;;;;7.65;5.10;;;-0.40;96.80;;;;;;5036556;28;20180;-68
2022/03/04 02:34:10;;;;;;;9.38;5.65;;;-0.40;97.00;;;;;;5053989;28;20189;-69
2022/03/04 02:36:37;;;;;;;4.82;4.45;;;-0.50;97.00;;;;;;5054299;28;20174;-69
2022/03/04 02:39:04;;;;;;;8.45;4.68;;;-0.60;97.40;;;;;;5054019;28;20173;-67
2022/03/04 02:41:30;;;;;;;4.13;3.83;;;-0.60;98.10;;;;;;5054109;28;20185;-69
2022/03/04 02:43:56;;;;;;;3.72;3.38;;;-0.60;98.40;;;;;;5053894;28;20177;-68
2022/03/04 02:46:22;;;;;;;5.97;5.50;;;-0.60;98.60;;;;;;5054133;28;20240;-68
2022/03/04 02:48:47;;;;;;;6.83;5.30;;;-0.60;98.90;;;;;;5054043;28;20623;-68
2022/03/04 02:51:13;;;;;;;13.30;4.73;;;-0.60;98.80;;;;;;5036143;28;20200;-69
2022/03/04 02:53:38;;;;;;;6.37;4.73;;;-0.70;98.80;;;;;;5053738;28;20295;-69
2022/03/04 02:56:04;;;;;;;7.23;5.60;;;-0.70;98.90;;;;;;5053786;28;20197;-69
2022/03/04 02:58:30;;;;;;;4.40;3.80;;;-0.70;99.10;;;;;;5053876;28;20677;-69
2022/03/04 03:00:56;;;;;;;4.30;3.90;;;-0.80;99.40;;;;;;5053750;28;20479;-68
2022/03/04 03:03:21;;;;;;;5.70;4.10;;;-0.80;99.90;;;;;;5035299;28;20174;-70
2022/03/04 03:05:47;;;;;;;6.20;5.80;;;-0.90;99.90;;;;;;5053927;28;20197;-69
2022/03/04 03:08:13;;;;;;;4.13;3.73;;;-0.80;99.90;;;;;;5053632;28;20170;-68
2022/03/04 03:10:39;;;;;;;6.27;5.63;;;-0.80;99.90;;;;;;5053694;28;20175;-68
2022/03/04 03:13:04;;;;;;;4.33;4.03;;;-0.80;99.90;;;;;;5053385;28;20465;-69
2022/03/04 03:15:30;;;;;;;5.73;4.07;;;-0.80;99.90;;;;;;5053519;28;20426;-69
2022/03/04 03:17:56;;;;;;;7.65;5.70;;;-0.80;99.90;;;;;;5053573;28;20502;-68
2022/03/04 03:20:22;;;;;;;6.20;4.93;;;-0.90;99.90;;;;;;5053608;28;20626;-69
2022/03/04 03:22:48;;;;;;;6.28;4.50;;;-0.90;99.90;;;;;;5035551;28;20253;-69
2022/03/04 03:25:14;;;;;;;4.53;4.20;;;-0.90;99.90;;;;;;5052994;28;20194;-69
2022/03/04 03:27:40;;;;;;;4.70;4.00;;;-0.90;99.90;;;;;;5035527;28;20173;-69
2022/03/04 03:30:07;;;;;;;5.47;4.82;;;-0.90;99.90;;;;;;5035472;28;20563;-68
2022/03/04 03:32:33;;;;;;;5.97;3.42;;;-0.90;99.90;;;;;;5053379;28;20169;-69
2022/03/04 03:34:59;;;;;;;6.07;4.97;;;-0.90;99.90;;;;;;5053094;28;20217;-68
2022/03/04 03:37:25;;;;;;;3.63;3.10;;;-1.00;99.90;;;;;;5053363;28;20404;-68
2022/03/04 03:39:51;;;;;;;7.03;4.50;;;-1.00;99.90;;;;;;5053195;28;20419;-68
2022/03/04 03:42:17;;;;;;;5.53;4.83;;;-1.00;99.90;;;;;;5053133;28;20209;-68
2022/03/04 03:44:43;;;;;;;6.60;4.30;;;-1.00;99.90;;;;;;5052937;28;20481;-68
2022/03/04 03:47:09;;;;;;;20.10;5.57;;;-1.00;99.90;;;;;;5053405;28;20635;-68
2022/03/04 03:49:35;;;;;;;7.15;4.65;;;-1.00;99.90;;;;;;5053081;28;20165;-68
2022/03/04 03:52:01;;;;;;;4.60;3.78;;;-1.00;99.90;;;;;;5053293;28;20169;-68
2022/03/04 03:54:27;;;;;;;5.70;5.20;;;-0.90;99.90;;;;;;5052751;28;20201;-68
2022/03/04 03:56:52;;;;;;;6.20;3.37;;;-0.90;99.90;;;;;;5053398;28;20283;-68
2022/03/04 03:59:18;;;;;;;5.50;3.70;;;-0.90;99.90;;;;;;5053021;28;20172;-68
2022/03/04 04:01:44;;;;;;;6.43;4.77;;;-0.80;99.90;;;;;;5052951;28;20196;-68
2022/03/04 04:04:13;;;;;;;3.47;3.13;;;-0.80;99.90;;;;;;5052496;28;20439;-68
2022/03/04 04:06:40;;;;;;;10.13;4.55;;;-0.80;99.90;;;;;;5052949;28;20172;-68
2022/03/04 04:09:06;;;;;;;4.45;3.97;;;-0.80;99.90;;;;;;5053065;28;20624;-69
2022/03/04 04:11:34;;;;;;;5.45;5.05;;;-0.90;99.90;;;;;;5052902;28;20173;-69
2022/03/04 04:14:03;;;;;;;7.88;4.05;;;-0.90;99.90;;;;;;5052384;28;20303;-68
2022/03/04 04:16:28;;;;;;;4.85;4.18;;;-1.00;99.90;;;;;;5052993;28;20174;-68
2022/03/04 04:18:56;;;;;;;5.67;5.03;;;-1.00;99.90;;;;;;5053051;28;20497;-69
2022/03/04 04:21:22;;;;;;;4.22;3.92;;;-1.10;99.90;;;;;;5054859;28;20185;-68
2022/03/04 04:23:48;;;;;;;5.20;4.70;;;-1.10;99.90;;;;;;5056361;28;20185;-68
2022/03/04 04:26:13;;;;;;;3.60;3.27;;;-1.20;99.90;;;;;;5056923;28;20189;-68
2022/03/04 04:28:39;;;;;;;4.83;3.47;;;-1.30;99.90;;;;;;5056653;28;20165;-68
2022/03/04 04:31:05;;;;;;;3.20;3.00;;;-1.30;99.90;;;;;;5056738;28;20172;-68
2022/03/04 04:33:31;;;;;;;4.80;3.20;;;-1.30;99.90;;;;;;5056125;28;20423;-68
2022/03/04 04:35:57;;;;;;;4.63;4.22;;;-1.40;99.90;;;;;;5038165;28;20205;-68
2022/03/04 04:38:23;;;;;;;3.15;2.85;;;-1.40;99.90;;;;;;5056338;28;20496;-68
2022/03/04 04:40:49;;;;;;;2.90;2.10;;;-1.50;99.90;;;;;;5056199;28;20181;-67
2022/03/04 04:43:15;;;;;;;6.13;4.53;;;-1.50;99.90;;;;;;5056315;28;20173;-69
2022/03/04 04:45:41;;;;;;;4.97;4.50;;;-1.60;99.90;;;;;;5056394;28;20426;-68
2022/03/04 04:48:06;;;;;;;4.57;4.13;;;-1.60;99.90;;;;;;5038401;28;20173;-68
2022/03/04 04:50:32;;;;;;;5.73;4.30;;;-1.60;99.90;;;;;;5038454;28;20181;-68
2022/03/04 04:52:58;;;;;;;5.00;4.17;;;-1.60;99.90;;;;;;5055986;28;20403;-69
2022/03/04 04:55:23;;;;;;;2.83;2.53;;;-1.60;99.90;;;;;;5055894;28;20193;-67
2022/03/04 04:57:49;;;;;;;5.47;4.27;;;-1.60;99.90;;;;;;5038109;28;20841;-67
2022/03/04 05:00:15;;;;;;;3.37;1.77;;;-1.60;99.90;;;;;;5056114;28;20196;-67
2022/03/04 05:02:40;;;;;;;3.83;3.63;;;-1.70;99.90;;;;;;5055979;28;20201;-67
2022/03/04 05:05:06;;;;;;;3.97;2.47;;;-1.70;99.90;;;;;;5055393;28;20556;-67
2022/03/04 05:07:32;;;;;;;3.85;3.55;;;-1.70;99.90;;;;;;5055865;28;20527;-67
2022/03/04 05:09:58;;;;;;;4.00;2.53;;;-1.80;99.90;;;;;;5037762;28;20166;-67
2022/03/04 05:12:23;;;;;;;4.87;4.47;;;-1.80;99.90;;;;;;5056294;28;20242;-67
2022/03/04 05:14:49;;;;;;;7.63;3.90;;;-1.80;99.90;;;;;;5055472;28;20720;-68
2022/03/04 05:17:14;;;;;;;2.43;2.33;;;-1.90;99.90;;;;;;5055800;28;20166;-68
2022/03/04 05:19:40;;;;;;;6.10;3.97;;;-1.90;99.90;;;;;;5055780;28;20631;-68
2022/03/04 05:22:05;;;;;;;5.50;4.60;;;-1.90;99.90;;;;;;5037612;28;20208;-68
2022/03/04 05:24:31;;;;;;;4.17;3.97;;;-1.90;99.90;;;;;;5055166;28;20209;-67
2022/03/04 05:26:57;;;;;;;4.13;3.83;;;-1.90;99.90;;;;;;5055429;28;20256;-67
2022/03/04 05:29:22;;;;;;;5.17;3.97;;;-1.90;99.90;;;;;;5055646;28;20513;-67
2022/03/04 05:31:48;;;;;;;6.33;3.50;;;-1.90;99.90;;;;;;5054693;28;20196;-67
2022/03/04 05:34:15;;;;;;;3.88;3.50;;;-2.00;99.90;;;;;;5036639;28;20196;-67
2022/03/04 05:36:41;;;;;;;4.72;4.32;;;-2.00;99.90;;;;;;5055466;28;20178;-67
2022/03/04 05:39:07;;;;;;;5.20;4.88;;;-2.00;99.90;;;;;;5055279;28;20551;-68
2022/03/04 05:41:33;;;;;;;4.63;3.10;;;-2.00;99.90;;;;;;5055085;28;20201;-67
2022/03/04 05:43:59;;;;;;;3.78;3.45;;;-2.10;99.90;;;;;;5036848;28;20211;-67
2022/03/04 05:46:25;;;;;;;9.68;5.60;;;-2.10;99.90;;;;;;5055230;28;20165;-67
2022/03/04 05:48:50;;;;;;;5.50;4.13;;;-2.10;99.90;;;;;;5055206;28;20173;-68
2022/03/04 05:51:17;;;;;;;3.73;3.13;;;-2.10;99.90;;;;;;5054995;28;20177;-68
2022/03/04 05:53:42;;;;;;;4.72;4.38;;;-2.20;99.90;;;;;;5054947;28;20174;-68
2022/03/04 05:56:09;;;;;;;7.00;4.37;;;-2.20;99.90;;;;;;5054927;28;20247;-67
2022/03/04 05:58:36;;;;;;;4.68;4.38;;;-2.10;99.90;;;;;;5055023;28;20555;-67
2022/03/04 06:01:03;;;;;;;2.53;2.38;;;-2.10;99.90;;;;;;5036873;28;20173;-67
2022/03/04 06:03:29;;;;;;;3.15;2.95;;;-2.10;99.90;;;;;;5054484;28;20162;-67
2022/03/04 06:05:55;;;;;;;5.13;4.88;;;-2.10;99.90;;;;;;5054729;28;20181;-68
2022/03/04 06:08:21;;;;;;;3.63;3.20;;;-2.10;99.90;;;;;;5055091;28;20659;-68
2022/03/04 06:10:47;;;;;;;3.03;2.92;;;-2.00;99.90;;;;;;5036759;28;20169;-68
2022/03/04 06:13:12;;;;;;;3.80;2.73;;;-2.00;99.90;;;;;;5036541;28;20176;-68
2022/03/04 06:15:38;;;;;;;4.33;4.00;;;-1.90;99.90;;;;;;5054727;28;20190;-68
2022/03/04 06:18:04;;;;;;;6.20;4.90;;;-1.90;99.90;;;;;;5054592;28;20644;-68
2022/03/04 06:20:29;;;;;;;7.53;5.30;;;-1.70;99.90;;;;;;5054729;28;20302;-67
2022/03/04 06:22:55;;;;;;;5.47;5.07;;;-1.70;99.90;;;;;;5054343;28;20197;-67
2022/03/04 06:25:21;;;;;;;5.57;4.43;;;-1.50;99.90;;;;;;5054050;28;20424;-67
2022/03/04 06:28:01;;;;;;;8.03;5.60;;;-1.40;99.90;;;;;;5054144;28;20165;-67
2022/03/04 06:30:29;;;;;;;5.38;4.63;;;-1.20;99.90;;;;;;5054331;28;20176;-67
2022/03/04 06:33:30;;;;;;;6.68;4.97;;;-1.00;99.90;;;;;;5054283;28;20184;-67
2022/03/04 06:35:41;;;;;;;8.45;4.85;;;-0.70;99.90;;;;;;5053868;28;20200;-69
2022/03/04 06:38:07;;;;;;;7.32;6.60;;;-0.40;99.90;;;;;;5036314;28;20185;-68
2022/03/04 06:40:33;;;;;;;10.00;5.93;;;0.00;99.90;;;;;;5054367;28;20170;-68
2022/03/04 06:42:59;;;;;;;5.37;4.87;;;0.40;99.90;;;;;;5053878;28;20211;-68
2022/03/04 06:45:24;;;;;;;5.53;4.80;;;0.70;99.90;;;;;;5035682;28;20420;-68
2022/03/04 06:47:51;;;;;;;7.67;5.37;;;1.10;99.90;;;;;;5054195;28;20458;-68
2022/03/04 06:50:17;;;;;;;10.68;6.28;;;1.40;99.90;;;;;;5036024;28;20196;-67
2022/03/04 06:52:43;;;;;;;13.70;8.47;;;1.80;99.90;;;;;;5053785;28;20299;-74
2022/03/04 06:55:09;;;;;;;10.57;8.45;;;2.30;99.90;;;;;;5053397;28;20427;-68
2022/03/04 06:57:35;;;;;;;12.73;7.15;;;2.80;99.30;;;;;;5053944;28;20180;-68
2022/03/04 07:00:02;;;;;;;9.67;6.50;;;3.30;98.30;;;;;;5053762;28;20169;-68
2022/03/04 07:02:28;;;;;;;9.18;6.50;;;3.80;96.90;;;;;;5054244;28;20456;-68
2022/03/04 07:04:53;;;;;;;9.60;7.53;;;4.30;95.00;;;;;;5035449;28;20215;-67
2022/03/04 07:07:19;;;;;;;8.73;6.23;;;4.70;94.30;;;;;;5053772;28;20171;-68
2022/03/04 07:09:44;;;;;;;8.70;6.27;;;5.20;93.00;;;;;;5053861;28;20249;-68
2022/03/04 07:12:10;;;;;;;12.00;6.97;;;5.60;92.00;;;;;;5053666;28;20347;-68
2022/03/04 07:14:36;;;;;;;8.80;7.33;;;6.00;91.30;;;;;;5035301;28;20255;-68
2022/03/04 07:17:02;;;;;;;6.93;6.10;;;6.60;90.00;;;;;;5053508;28;20161;-70
2022/03/04 07:19:27;;;;;;;7.90;7.10;;;7.30;85.50;;;;;;5053666;28;20259;-68
2022/03/04 07:21:53;;;;;;;9.07;7.80;;;7.80;84.50;;;;;;5053330;28;20494;-68
2022/03/04 07:24:19;;;;;;;11.67;7.33;;;8.40;82.10;;;;;;5035163;28;20191;-68
2022/03/04 07:26:44;;;;;;;9.83;8.03;;;9.00;79.70;;;;;;5053548;28;20220;-68
2022/03/04 07:29:10;;;;;;;11.53;8.70;;;9.40;74.90;;;;;;5053290;28;20179;-69
2022/03/04 07:31:36;;;;;;;12.67;9.37;;;9.60;73.60;;;;;;5053453;28;20180;-69
2022/03/04 07:34:01;;;;;;;9.00;7.43;;;10.00;72.00;;;;;;5035126;28;20173;-68
2022/03/04 07:36:27;;;;;;;8.30;7.40;;;10.50;70.20;;;;;;5053428;28;20168;-68
2022/03/04 07:38:55;;;;;;;10.23;7.70;;;11.10;68.20;;;;;;5035483;28;20310;-68
2022/03/04 07:41:21;;;;;;;10.33;8.47;;;11.60;66.50;;;;;;5053222;28;20187;-69
2022/03/04 07:43:46;;;;;;;9.90;8.90;;;11.90;64.40;;;;;;5053107;28;20445;-68
2022/03/04 07:46:12;;;;;;;14.50;9.13;;;12.20;63.00;;;;;;5053292;28;20455;-70
2022/03/04 07:48:38;;;;;;;9.83;8.07;;;12.50;62.20;;;;;;5053035;28;20176;-69
2022/03/04 07:51:05;;;;;;;8.90;7.80;;;12.80;60.70;;;;;;5053034;28;20508;-69
2022/03/04 07:53:30;;;;;;;10.57;9.00;;;13.10;60.00;;;;;;5052886;28;20179;-69
2022/03/04 07:55:56;;;;;;;9.47;8.23;;;13.70;58.60;;;;;;5054004;28;20454;-69
2022/03/04 07:58:22;;;;;;;10.00;8.90;;;14.00;57.90;;;;;;5057018;28;20161;-69
2022/03/04 08:00:48;;;;;;;10.53;8.37;;;14.20;57.00;;;;;;5056957;28;20201;-69
2022/03/04 08:03:14;;;;;;;9.70;8.70;;;14.20;56.80;;;;;;5057081;28;20174;-69
2022/03/04 08:05:40;;;;;;;14.33;9.87;;;14.10;56.10;;;;;;5056951;28;20217;-68
2022/03/04 08:08:06;;;;;;;22.60;10.27;;;13.90;56.30;;;;;;5057017;28;20483;-69
2022/03/04 08:10:32;;;;;;;9.83;8.83;;;13.90;56.40;;;;;;5057124;28;20952;-68
2022/03/04 08:12:57;;;;;;;12.50;10.33;;;13.90;56.00;;;;;;5056929;28;20169;-69
2022/03/04 08:15:23;;;;;;;12.33;8.93;;;13.90;55.70;;;;;;5056508;28;20267;-69
2022/03/04 08:17:49;;;;;;;13.40;10.83;;;14.00;55.80;;;;;;5056974;28;20222;-69
2022/03/04 08:20:15;;;;;;;10.10;9.03;;;14.30;55.30;;;;;;5056829;28;20162;-68
2022/03/04 08:22:41;;;;;;;11.80;8.10;;;14.20;54.80;;;;;;5056678;28;20446;-69
2022/03/04 08:25:07;;;;;;;11.30;8.80;;;14.20;54.80;;;;;;5056148;28;20507;-69
2022/03/04 08:27:38;;;;;;;10.30;8.60;;;14.20;54.50;;;;;;5056523;28;20170;-69
2022/03/04 08:30:05;;;;;;;11.77;8.00;;;14.30;54.70;;;;;;5056740;28;20422;-68
2022/03/04 08:32:31;;;;;;;13.70;9.87;;;14.50;54.30;;;;;;5056676;28;20731;-69
2022/03/04 08:34:59;;;;;;;12.60;8.80;;;14.60;54.10;;;;;;5056426;28;20439;-69
2022/03/04 08:37:25;;;;;;;13.57;10.93;;;14.50;54.20;;;;;;5056678;28;20170;-69
2022/03/04 08:39:51;;;;;;;10.77;9.20;;;14.40;54.30;;;;;;5038412;28;20461;-69
2022/03/04 08:42:16;;;;;;;12.60;9.80;;;14.60;53.90;;;;;;5056898;28;20208;-69
2022/03/04 08:44:42;;;;;;;14.00;9.50;;;14.70;54.10;;;;;;5056085;28;20742;-69
2022/03/04 08:47:08;;;;;;;12.83;9.53;;;14.80;53.60;;;;;;5056325;28;20171;-68
2022/03/04 08:49:34;;;;;;;13.90;10.40;;;14.90;53.70;;;;;;5038492;28;20184;-70
2022/03/04 08:52:00;;;;;;;13.20;9.47;;;14.90;54.00;;;;;;5056298;28;20404;-69
2022/03/04 08:54:27;;;;;;;12.07;10.73;;;15.10;53.80;;;;;;5055675;28;20452;-69
2022/03/04 08:56:53;;;;;;;10.83;9.43;;;15.40;54.10;;;;;;5038096;28;20424;-70
2022/03/04 08:59:19;;;;;;;13.70;10.27;;;15.90;53.40;;;;;;5055872;28;20412;-68
2022/03/04 09:01:44;;;;;;;12.20;8.90;;;16.00;51.60;;;;;;5056158;28;20201;-72
2022/03/04 09:04:14;;;;;;;11.90;9.77;;;15.80;51.70;;;;;;5055513;28;20489;-69
2022/03/04 09:06:40;;;;;;;14.50;9.73;;;16.00;51.40;;;;;;5055666;28;20219;-69
2022/03/04 09:09:06;;;;;;;13.93;10.07;;;16.10;50.50;;;;;;5055875;28;20404;-69
2022/03/04 09:11:32;;;;;;;12.60;9.80;;;16.10;50.50;;;;;;5055940;28;20416;-70
2022/03/04 09:13:58;;;;;;;12.57;10.33;;;16.10;50.40;;;;;;5055363;28;20418;-67
2022/03/04 09:16:23;;;;;;;11.80;8.53;;;16.20;50.60;;;;;;5055684;28;20405;-70
2022/03/04 09:18:49;;;;;;;10.90;9.20;;;16.20;49.70;;;;;;5055932;28;20256;-69
2022/03/04 09:21:15;;;;;;;11.17;9.67;;;16.50;49.20;;;;;;5055756;28;20276;-71
2022/03/04 09:23:43;;;;;;;11.20;9.43;;;16.60;49.60;;;;;;5055686;28;20173;-69
2022/03/04 09:26:09;;;;;;;13.60;10.13;;;16.80;48.90;;;;;;5037438;28;20189;-70
2022/03/04 09:28:35;;;;;;;12.07;8.33;;;16.70;47.90;;;;;;5055561;28;20742;-69
2022/03/04 09:31:00;;;;;;;13.37;9.87;;;16.80;48.90;;;;;;5055671;28;20188;-69
2022/03/04 09:33:27;;;;;;;14.37;10.20;;;17.00;47.70;;;;;;5055303;28;20182;-70
2022/03/04 09:35:53;;;;;;;12.90;10.07;;;17.20;47.70;;;;;;5055908;28;20186;-70
2022/03/04 09:38:19;;;;;;;12.67;10.83;;;17.40;47.10;;;;;;5055335;28;20545;-70
2022/03/04 09:40:45;;;;;;;11.33;10.00;;;17.20;46.40;;;;;;5055303;28;20435;-69
2022/03/04 09:43:10;;;;;;;11.03;9.10;;;17.00;46.30;;;;;;5055132;28;20281;-69
2022/03/04 09:45:36;;;;;;;11.57;10.30;;;16.70;46.20;;;;;;5055167;28;20516;-70
2022/03/04 09:48:05;;;;;;;12.50;9.80;;;16.60;46.40;;;;;;5055236;28;20165;-70
2022/03/04 09:50:32;;;;;;;10.90;8.40;;;16.60;46.00;;;;;;5054896;28;20166;-70
2022/03/04 09:52:58;;;;;;;11.50;9.10;;;16.50;46.00;;;;;;5054912;28;20409;-70
2022/03/04 09:55:24;;;;;;;13.20;10.63;;;16.40;46.30;;;;;;5054589;28;20506;-69
2022/03/04 09:57:50;;;;;;;10.00;8.47;;;16.50;45.90;;;;;;5054976;28;20414;-70
2022/03/04 10:00:16;;;;;;;9.00;8.10;;;16.40;45.60;;;;;;5055110;28;20407;-69
2022/03/04 10:02:41;;;;;;;11.77;8.53;;;16.20;45.80;;;;;;5054899;28;20239;-69
2022/03/04 10:05:08;;;;;;;11.90;9.10;;;16.10;45.80;;;;;;5054337;28;20260;-69
2022/03/04 10:07:49;;;;;;;10.37;8.87;;;16.10;46.40;;;;;;5054772;28;20162;-68
2022/03/04 10:10:17;;;;;;;11.07;9.20;;;16.50;46.00;;;;;;5055037;28;20409;-68
2022/03/04 10:12:48;;;;;;;12.03;10.13;;;16.50;45.50;;;;;;5036809;28;20444;-73
2022/03/04 10:15:13;;;;;;;16.60;11.93;;;16.60;45.30;;;;;;5054475;28;20425;-69
2022/03/04 10:17:39;;;;;;;12.60;9.33;;;16.30;46.30;;;;;;5054558;28;20457;-68
2022/03/04 10:20:12;;;;;;;12.77;9.57;;;16.40;45.60;;;;;;5054059;28;20254;-68
2022/03/04 10:22:42;;;;;;;17.93;10.00;;;16.30;45.70;;;;;;5054476;28;20296;-68
2022/03/04 10:25:20;;;;;;;12.00;10.27;;;16.50;45.70;;;;;;5054340;28;20438;-68
2022/03/04 10:27:47;;;;;;;13.47;10.10;;;16.60;45.90;;;;;;5054482;28;20403;-69
2022/03/04 10:30:14;;;;;;;12.07;8.93;;;16.80;45.50;;;;;;5054075;28;20453;-69
2022/03/04 10:32:40;;;;;;;12.47;9.17;;;16.80;45.10;;;;;;5036453;28;20412;-70
2022/03/04 10:35:11;;;;;;;12.13;8.77;;;16.70;45.40;;;;;;5053958;28;20789;-70
2022/03/04 10:37:48;;;;;;;10.80;9.50;;;16.40;44.00;;;;;;5054425;28;20413;-70
2022/03/04 10:40:22;;;;;;;8.57;7.73;;;16.00;42.80;;;;;;5054277;28;20399;-68
2022/03/04 10:42:52;;;;;;;11.00;8.23;;;15.60;43.20;;;;;;5053811;28;20513;-67
2022/03/04 10:45:23;;;;;;;11.03;8.77;;;15.50;43.20;;;;;;5053765;28;20918;-69
2022/03/04 10:47:55;;;;;;;13.33;8.17;;;15.60;42.50;;;;;;5053897;28;20426;-69
2022/03/04 10:50:42;;;;;;;11.00;8.67;;;15.70;42.10;;;;;;5054092;28;20453;-67
2022/03/04 10:53:12;;;;;;;10.37;7.97;;;15.40;41.20;;;;;;5035849;28;20434;-70
2022/03/04 10:55:57;;;;;;;10.70;9.60;;;15.00;41.80;;;;;;5053944;28;20428;-69
2022/03/04 10:58:28;;;;;;;11.80;7.77;;;14.90;42.90;;;;;;5050808;28;20420;-69
2022/03/04 11:01:05;;;;;;;8.60;6.77;;;14.80;42.70;;;;;;5036084;28;20387;-69
2022/03/04 11:03:33;;;;;;;10.40;8.20;;;14.70;42.50;;;;;;5053306;28;20422;-67
2022/03/04 11:06:13;;;;;;;7.83;7.10;;;14.60;42.70;;;;;;5053726;28;20444;-70
2022/03/04 11:08:39;;;;;;;9.70;6.60;;;14.50;43.20;;;;;;5053959;28;20820;-68
2022/03/04 11:11:07;;;;;;;8.97;7.97;;;14.40;42.30;;;;;;5053596;28;20495;-68
2022/03/04 11:13:34;;;;;;;9.90;7.53;;;14.10;42.80;;;;;;5053306;28;20414;-68
2022/03/04 11:16:01;;;;;;;6.87;5.30;;;13.90;43.20;;;;;;5035550;28;20573;-68
2022/03/04 11:18:27;;;;;;;11.20;7.23;;;13.80;42.20;;;;;;5053499;28;20761;-69
2022/03/04 11:20:55;;;;;;;8.00;6.30;;;13.60;42.00;;;;;;5053553;28;20420;-70
2022/03/04 11:23:32;;;;;;;11.40;8.50;;;13.40;42.80;;;;;;5053472;28;20438;-69
2022/03/04 11:26:01;;;;;;;11.40;7.80;;;13.10;43.40;;;;;;5053433;28;20415;-68
2022/03/04 11:28:48;;;;;;;10.00;8.20;;;12.60;43.80;;;;;;5035665;28;20390;-69
2022/03/04 11:31:20;;;;;;;9.67;7.00;;;12.10;44.70;;;;;;5053556;28;20742;-69
2022/03/04 11:34:00;;;;;;;9.90;8.37;;;11.40;44.70;;;;;;5053065;28;20765;-68
2022/03/04 11:36:29;;;;;;;8.57;6.27;;;10.80;45.80;;;;;;5035464;28;20795;-67
2022/03/04 11:38:58;;;;;;;8.20;6.50;;;10.50;46.40;;;;;;5053307;28;20379;-68
2022/03/04 11:41:26;;;;;;;9.13;5.90;;;10.20;46.50;;;;;;5053402;28;20342;-70
2022/03/04 11:43:54;;;;;;;9.77;6.63;;;10.10;46.90;;;;;;5035001;28;20204;-70
2022/03/04 11:46:28;;;;;;;11.05;6.15;;;9.90;47.50;;;;;;5053239;28;20196;-68
2022/03/04 11:49:31;;;;;;;9.57;6.30;;;9.70;48.50;;;;;;5035302;28;20532;-67
2022/03/04 11:52:09;;;;;;;8.20;6.88;;;9.60;48.70;;;;;;5035171;28;20173;-67
2022/03/04 11:54:46;;;;;;;8.00;5.80;;;9.40;48.70;;;;;;5052714;28;20185;-68
2022/03/04 11:57:36;;;;;;;9.18;6.70;;;9.30;49.60;;;;;;5053251;28;20192;-67
2022/03/04 12:00:14;;;;;;;9.68;5.60;;;9.20;49.60;;;;;;5052953;28;20166;-68
2022/03/04 12:02:44;;;;;;;7.82;6.55;;;9.20;50.50;;;;;;5052934;28;20551;-69
2022/03/04 12:05:13;;;;;;;10.30;7.88;;;9.20;50.50;;;;;;5052576;28;20284;-68
2022/03/04 12:07:44;;;;;;;7.43;6.57;;;9.30;50.50;;;;;;5052986;28;20161;-69
2022/03/04 12:10:10;;;;;;;13.40;5.95;;;9.30;50.20;;;;;;5053159;28;20268;-68
2022/03/04 12:12:36;;;;;;;10.23;6.95;;;9.40;50.00;;;;;;5053176;28;20181;-68
2022/03/04 12:15:17;;;;;;;12.50;6.70;;;9.40;49.90;;;;;;5052634;28;20208;-66
2022/03/04 12:17:54;;;;;;;8.25;5.30;;;9.40;49.10;;;;;;5053077;28;20170;-68
2022/03/04 12:20:27;;;;;;;9.68;5.88;;;9.40;48.60;;;;;;5053347;28;20245;-69
2022/03/04 12:23:06;;;;;;;21.45;6.75;;;9.30;48.70;;;;;;5053071;28;20193;-69
2022/03/04 12:25:54;;;;;;;12.18;8.05;;;9.30;49.30;;;;;;5034834;28;20658;-69
2022/03/04 12:28:22;;;;;;;9.73;7.05;;;9.40;49.90;;;;;;5053065;28;20169;-68
2022/03/04 12:31:00;;;;;;;10.00;6.93;;;9.40;50.20;;;;;;5052732;28;20204;-68
2022/03/04 12:33:29;;;;;;;39.35;11.90;;;9.50;49.90;;;;;;5052293;28;20172;-67
2022/03/04 12:35:57;;;;;;;12.68;7.45;;;9.50;50.00;;;;;;5034762;28;20232;-68
2022/03/04 12:38:52;;;;;;;8.25;7.40;;;9.50;50.30;;;;;;5052889;28;20189;-67
2022/03/04 12:41:21;;;;;;;7.88;5.32;;;9.50;50.20;;;;;;5041948;28;20213;-68
2022/03/04 12:43:48;;;;;;;5.43;4.97;;;9.50;50.20;;;;;;5055957;28;20168;-67
2022/03/04 12:46:16;;;;;;;7.32;6.65;;;9.50;49.80;;;;;;5056237;28;20524;-69